createdAt,value
2022-09-27T00:01:00.247Z,15.04
2022-09-27T00:03:28.002Z,15.00
2022-09-27T00:06:05.528Z,14.97
2022-09-27T00:08:33.603Z,14.97
2022-09-27T00:11:01.897Z,14.97
2022-09-27T00:13:29.423Z,14.98
2022-09-27T00:15:57.652Z,14.87
2022-09-27T00:18:25.043Z,14.84
2022-09-27T00:20:52.238Z,14.90
2022-09-27T00:23:19.887Z,14.87
2022-09-27T00:25:57.011Z,14.98
2022-09-27T00:28:24.777Z,15.04
2022-09-27T00:30:52.140Z,15.08
2022-09-27T00:33:19.517Z,15.08
2022-09-27T00:35:46.853Z,15.12
2022-09-27T00:38:14.514Z,15.15
2022-09-27T00:40:43.160Z,15.08
2022-09-27T00:43:18.558Z,15.13
2022-09-27T00:45:48.663Z,15.26
2022-09-27T00:48:18.468Z,15.23
2022-09-27T00:50:48.126Z,15.22
2022-09-27T00:53:17.446Z,15.04
2022-09-27T00:55:49.422Z,14.92
2022-09-27T00:58:18.932Z,14.95
2022-09-27T01:00:48.518Z,14.98
2022-09-27T01:03:22.578Z,15.08
2022-09-27T01:05:49.799Z,15.19
2022-09-27T01:08:16.965Z,15.24
2022-09-27T01:10:49.910Z,15.28
2022-09-27T01:13:20.691Z,15.35
2022-09-27T01:16:00.485Z,15.09
2022-09-27T01:18:51.069Z,15.17
2022-09-27T01:21:21.528Z,15.30
2022-09-27T01:23:48.884Z,15.38
2022-09-27T01:26:22.745Z,15.45
2022-09-27T01:29:05.608Z,15.58
2022-09-27T01:31:41.485Z,15.48
2022-09-27T01:34:16.817Z,15.36
2022-09-27T01:36:47.084Z,15.34
2022-09-27T01:39:32.881Z,15.48
2022-09-27T01:42:41.329Z,15.48
2022-09-27T01:45:17.871Z,15.35
2022-09-27T01:48:07.904Z,15.16
2022-09-27T01:50:57.186Z,14.97
2022-09-27T01:53:27.481Z,14.94
2022-09-27T01:56:10.920Z,15.05
2022-09-27T01:59:05.241Z,15.16
2022-09-27T02:01:35.949Z,15.20
2022-09-27T02:04:03.791Z,15.24
2022-09-27T02:06:43.037Z,15.30
2022-09-27T02:09:31.059Z,15.37
2022-09-27T02:12:17.833Z,15.33
2022-09-27T02:14:48.731Z,15.33
2022-09-27T02:17:21.565Z,15.37
2022-09-27T02:19:56.049Z,15.37
2022-09-27T02:22:36.061Z,15.48
2022-09-27T02:25:21.493Z,15.44
2022-09-27T02:28:08.215Z,15.37
2022-09-27T02:30:36.682Z,15.31
2022-09-27T02:33:16.972Z,15.21
2022-09-27T02:35:46.011Z,15.07
2022-09-27T02:38:13.910Z,15.11
2022-09-27T02:40:46.030Z,15.12
2022-09-27T02:43:14.468Z,15.12
2022-09-27T02:45:41.849Z,15.10
2022-09-27T02:48:09.155Z,15.10
2022-09-27T02:50:39.437Z,15.16
2022-09-27T02:53:18.481Z,15.14
2022-09-27T02:55:58.142Z,15.11
2022-09-27T02:59:13.010Z,15.15
2022-09-27T03:01:58.220Z,15.35
2022-09-27T03:04:37.181Z,15.14
2022-09-27T03:07:07.005Z,15.15
2022-09-27T03:09:41.579Z,15.16
2022-09-27T03:12:08.868Z,15.22
2022-09-27T03:14:36.153Z,15.18
2022-09-27T03:17:17.192Z,15.17
2022-09-27T03:20:04.992Z,15.10
2022-09-27T03:22:44.497Z,15.14
2022-09-27T03:25:11.776Z,15.12
2022-09-27T03:27:38.940Z,15.19
2022-09-27T03:30:06.917Z,15.16
2022-09-27T03:32:34.199Z,15.21
2022-09-27T03:35:30.832Z,15.24
2022-09-27T03:37:58.025Z,15.10
2022-09-27T03:40:25.308Z,15.05
2022-09-27T03:42:52.546Z,15.05
2022-09-27T03:45:19.786Z,15.06
2022-09-27T03:47:48.091Z,15.11
2022-09-27T03:50:15.540Z,15.03
2022-09-27T03:52:43.958Z,15.02
2022-09-27T03:55:12.117Z,15.07
2022-09-27T03:57:39.371Z,15.06
2022-09-27T04:00:08.212Z,15.12
2022-09-27T04:02:42.427Z,15.09
2022-09-27T04:05:25.757Z,14.95
2022-09-27T04:08:02.804Z,14.84
2022-09-27T04:10:32.439Z,15.12
2022-09-27T04:13:00.479Z,15.17
2022-09-27T04:15:32.131Z,15.31
2022-09-27T04:18:19.594Z,15.27
2022-09-27T04:21:05.280Z,15.13
2022-09-27T04:23:33.884Z,15.07
2022-09-27T04:26:01.331Z,14.87
2022-09-27T04:28:52.143Z,14.44
2022-09-27T04:31:22.784Z,14.65
2022-09-27T04:33:54.880Z,14.76
2022-09-27T04:36:27.993Z,14.78
2022-09-27T04:39:04.694Z,14.65
2022-09-27T04:41:33.029Z,14.45
2022-09-27T04:44:01.242Z,14.36
2022-09-27T04:46:31.773Z,14.32
2022-09-27T04:48:59.622Z,14.41
2022-09-27T04:51:27.882Z,14.44
2022-09-27T04:53:57.127Z,14.62
2022-09-27T04:56:28.690Z,14.63
2022-09-27T04:58:55.839Z,14.62
2022-09-27T05:01:23.392Z,14.87
2022-09-27T05:03:59.526Z,14.96
2022-09-27T05:06:28.286Z,14.98
2022-09-27T05:08:58.903Z,15.04
2022-09-27T05:11:28.239Z,14.99
2022-09-27T05:14:14.307Z,15.07
2022-09-27T05:16:55.427Z,14.90
2022-09-27T05:19:44.697Z,14.63
2022-09-27T05:22:18.440Z,14.39
2022-09-27T05:24:46.173Z,14.41
2022-09-27T05:27:18.513Z,14.73
2022-09-27T05:29:46.750Z,14.88
2022-09-27T05:32:34.662Z,15.01
2022-09-27T05:35:20.941Z,15.02
2022-09-27T05:37:52.795Z,15.06
2022-09-27T05:40:39.745Z,14.98
2022-09-27T05:43:08.399Z,14.97
2022-09-27T05:45:35.748Z,15.05
2022-09-27T05:48:05.295Z,14.95
2022-09-27T05:50:36.913Z,14.98
2022-09-27T05:53:04.814Z,15.00
2022-09-27T05:55:32.261Z,14.88
2022-09-27T05:58:04.628Z,15.03
2022-09-27T06:00:39.706Z,15.21
2022-09-27T06:03:26.910Z,15.18
2022-09-27T06:06:12.592Z,15.21
2022-09-27T06:08:46.816Z,15.35
2022-09-27T06:11:17.712Z,15.41
2022-09-27T06:13:45.972Z,15.51
2022-09-27T06:16:13.265Z,15.57
2022-09-27T06:18:42.843Z,15.61
2022-09-27T06:21:10.623Z,15.65
2022-09-27T06:23:38.281Z,15.69
2022-09-27T06:26:13.066Z,15.76
2022-09-27T06:28:58.596Z,15.79
2022-09-27T06:31:26.015Z,15.65
2022-09-27T06:34:02.659Z,15.31
2022-09-27T06:36:30.622Z,15.15
2022-09-27T06:38:57.899Z,15.18
2022-09-27T06:41:33.373Z,15.28
2022-09-27T06:44:03.577Z,15.20
2022-09-27T06:47:05.782Z,15.02
2022-09-27T06:49:51.505Z,14.90
2022-09-27T06:52:19.417Z,14.76
2022-09-27T06:54:47.533Z,14.83
2022-09-27T06:57:34.986Z,15.00
2022-09-27T07:00:20.619Z,15.43
2022-09-27T07:03:08.285Z,15.69
2022-09-27T07:05:56.935Z,15.66
2022-09-27T07:08:39.947Z,15.64
2022-09-27T07:11:07.748Z,15.91
2022-09-27T07:13:40.483Z,15.82
2022-09-27T07:16:08.061Z,15.93
2022-09-27T07:18:35.381Z,16.08
2022-09-27T07:21:02.625Z,15.90
2022-09-27T07:23:30.772Z,15.71
2022-09-27T07:26:04.231Z,15.92
2022-09-27T07:28:31.960Z,16.09
2022-09-27T07:31:00.260Z,16.28
2022-09-27T07:33:27.681Z,16.23
2022-09-27T07:35:54.899Z,16.28
2022-09-27T07:38:22.369Z,16.31
2022-09-27T07:40:49.876Z,16.28
2022-09-27T07:43:17.732Z,16.30
2022-09-27T07:45:45.258Z,16.47
2022-09-27T07:48:34.830Z,16.65
2022-09-27T07:51:11.981Z,16.78
2022-09-27T07:53:51.323Z,16.65
2022-09-27T07:56:31.722Z,16.49
2022-09-27T07:58:59.212Z,16.34
2022-09-27T08:01:26.474Z,16.30
2022-09-27T08:03:54.057Z,16.43
2022-09-27T08:06:22.137Z,16.48
2022-09-27T08:08:49.624Z,16.68
2022-09-27T08:11:18.899Z,16.83
2022-09-27T08:13:52.657Z,17.11
2022-09-27T08:16:24.014Z,17.33
2022-09-27T08:19:11.182Z,17.61
2022-09-27T08:21:45.865Z,17.63
2022-09-27T08:24:21.476Z,17.91
2022-09-27T08:27:10.781Z,18.45
2022-09-27T08:29:50.984Z,18.50
2022-09-27T08:32:22.978Z,18.37
2022-09-27T08:34:50.872Z,18.47
2022-09-27T08:37:18.092Z,18.61
2022-09-27T08:39:47.968Z,18.80
2022-09-27T08:42:39.926Z,18.89
2022-09-27T08:45:13.101Z,18.77
2022-09-27T08:47:45.907Z,19.16
2022-09-27T08:50:16.015Z,19.60
2022-09-27T08:52:47.222Z,20.50
2022-09-27T08:55:25.518Z,21.29
2022-09-27T08:57:55.266Z,21.87
2022-09-27T09:00:23.392Z,22.40
2022-09-27T09:02:50.933Z,22.53
2022-09-27T09:05:25.102Z,21.71
2022-09-27T09:08:18.961Z,20.76
2022-09-27T09:11:08.995Z,22.20
2022-09-27T09:13:53.295Z,22.20
2022-09-27T09:16:31.456Z,21.59
2022-09-27T09:19:16.797Z,20.39
2022-09-27T09:22:16.141Z,20.05
2022-09-27T09:24:55.246Z,19.93
2022-09-27T09:27:25.973Z,20.12
2022-09-27T09:29:59.160Z,20.08
2022-09-27T09:32:44.692Z,20.07
2022-09-27T09:35:21.921Z,19.54
2022-09-27T09:38:01.365Z,19.59
2022-09-27T09:40:32.737Z,19.67
2022-09-27T09:43:05.245Z,19.68
2022-09-27T09:45:39.856Z,19.61
2022-09-27T09:48:16.394Z,19.65
2022-09-27T09:50:51.917Z,19.49
2022-09-27T09:53:22.563Z,19.52
2022-09-27T09:56:14.695Z,19.35
2022-09-27T09:58:49.547Z,19.19
2022-09-27T10:01:19.467Z,19.20
2022-09-27T10:03:47.086Z,19.21
2022-09-27T10:06:16.119Z,19.15
2022-09-27T10:08:43.623Z,19.37
2022-09-27T10:11:37.458Z,19.37
2022-09-27T10:14:12.592Z,19.28
2022-09-27T10:16:42.610Z,19.25
2022-09-27T10:19:10.922Z,19.32
2022-09-27T10:21:41.047Z,19.28
2022-09-27T10:24:16.497Z,19.24
2022-09-27T10:27:03.739Z,19.37
2022-09-27T10:29:37.915Z,19.45
2022-09-27T10:32:19.395Z,19.48
2022-09-27T10:34:46.773Z,19.37
2022-09-27T10:37:17.201Z,19.44
2022-09-27T10:39:58.348Z,19.50
2022-09-27T10:42:34.621Z,19.48
2022-09-27T10:45:18.005Z,19.54
2022-09-27T10:47:54.371Z,19.57
2022-09-27T10:50:49.213Z,19.57
2022-09-27T10:53:26.316Z,19.63
2022-09-27T10:56:00.080Z,19.81
2022-09-27T10:58:27.443Z,19.90
2022-09-27T11:01:15.224Z,19.77
2022-09-27T11:04:06.436Z,19.81
2022-09-27T11:06:38.334Z,19.85
2022-09-27T11:09:16.629Z,19.82
2022-09-27T11:11:45.281Z,19.95
2022-09-27T11:14:20.333Z,20.00
2022-09-27T11:16:47.746Z,20.06
2022-09-27T11:19:34.006Z,20.07
2022-09-27T11:22:08.460Z,20.06
2022-09-27T11:24:35.830Z,19.90
2022-09-27T11:27:22.339Z,19.93
2022-09-27T11:30:04.184Z,19.89
2022-09-27T11:33:06.602Z,19.96
2022-09-27T11:35:34.008Z,20.07
2022-09-27T11:38:04.726Z,20.09
2022-09-27T11:40:41.169Z,20.12
2022-09-27T11:43:29.853Z,20.22
2022-09-27T11:46:18.170Z,20.28
2022-09-27T11:49:08.957Z,20.27
2022-09-27T11:51:56.977Z,20.28
2022-09-27T11:54:24.161Z,20.36
2022-09-27T11:56:54.360Z,20.51
2022-09-27T11:59:34.123Z,20.51
2022-09-27T12:02:02.427Z,20.44
2022-09-27T12:04:33.480Z,20.37
2022-09-27T12:07:04.041Z,20.37
2022-09-27T12:09:36.244Z,20.42
2022-09-27T12:12:12.495Z,20.45
2022-09-27T12:14:42.885Z,20.48
2022-09-27T12:17:14.565Z,20.54
2022-09-27T12:19:50.423Z,20.55
2022-09-27T12:22:53.943Z,20.56
2022-09-27T12:25:20.867Z,20.69
2022-09-27T12:28:28.406Z,20.66
2022-09-27T12:31:27.629Z,20.66
2022-09-27T12:34:02.681Z,20.72
2022-09-27T12:36:38.170Z,20.68
2022-09-27T12:39:29.965Z,20.58
2022-09-27T12:42:21.653Z,20.54
2022-09-27T12:44:50.907Z,20.50
2022-09-27T12:47:31.792Z,20.53
2022-09-27T12:50:12.581Z,20.57
2022-09-27T12:52:52.920Z,20.65
2022-09-27T12:55:27.493Z,20.77
2022-09-27T12:58:13.918Z,20.88
2022-09-27T13:00:47.331Z,20.74
2022-09-27T13:03:26.377Z,20.58
2022-09-27T13:06:04.599Z,20.56
2022-09-27T13:08:41.373Z,20.64
2022-09-27T13:11:28.074Z,20.67
2022-09-27T13:13:56.948Z,20.66
2022-09-27T13:16:25.808Z,20.53
2022-09-27T13:18:54.013Z,20.44
2022-09-27T13:21:40.476Z,20.33
2022-09-27T13:24:39.383Z,20.23
2022-09-27T13:27:27.451Z,20.19
2022-09-27T13:30:12.320Z,20.25
2022-09-27T13:33:02.179Z,20.27
2022-09-27T13:35:37.441Z,20.31
2022-09-27T13:38:24.095Z,20.35
2022-09-27T13:40:54.008Z,20.39
2022-09-27T13:43:42.807Z,20.25
2022-09-27T13:46:24.634Z,20.14
2022-09-27T13:48:56.578Z,20.07
2022-09-27T13:51:30.614Z,20.07
2022-09-27T13:54:06.621Z,20.14
2022-09-27T13:56:38.017Z,20.24
2022-09-27T13:59:10.736Z,20.30
2022-09-27T14:02:20.508Z,20.41
2022-09-27T14:04:50.880Z,20.56
2022-09-27T14:07:22.058Z,20.55
2022-09-27T14:09:55.689Z,20.54
2022-09-27T14:12:34.650Z,20.52
2022-09-27T14:15:05.356Z,20.52
2022-09-27T14:17:33.498Z,20.56
2022-09-27T14:20:03.268Z,20.62
2022-09-27T14:22:31.143Z,20.63
2022-09-27T14:25:16.753Z,20.52
2022-09-27T14:27:45.794Z,20.54
2022-09-27T14:30:39.138Z,20.64
2022-09-27T14:33:38.368Z,20.69
2022-09-27T14:36:55.902Z,20.70
2022-09-27T14:39:32.661Z,20.65
2022-09-27T14:42:05.075Z,20.61
2022-09-27T14:44:33.356Z,20.62
2022-09-27T14:47:23.315Z,20.61
2022-09-27T14:49:50.601Z,20.55
2022-09-27T14:52:21.403Z,20.52
2022-09-27T14:54:58.755Z,20.49
2022-09-27T14:57:27.034Z,20.48
2022-09-27T14:59:54.651Z,20.47
2022-09-27T15:02:23.579Z,20.43
2022-09-27T15:04:51.652Z,20.39
2022-09-27T15:07:20.021Z,20.38
2022-09-27T15:09:47.346Z,20.31
2022-09-27T15:12:19.062Z,20.32
2022-09-27T15:14:49.455Z,20.24
2022-09-27T15:17:21.022Z,20.22
2022-09-27T15:19:58.561Z,20.19
2022-09-27T15:22:34.457Z,20.15
2022-09-27T15:25:07.835Z,20.13
2022-09-27T15:27:34.973Z,20.12
2022-09-27T15:30:02.200Z,20.09
2022-09-27T15:32:29.727Z,20.08
2022-09-27T15:34:57.787Z,20.11
2022-09-27T15:37:24.879Z,20.10
2022-09-27T15:39:51.984Z,20.08
2022-09-27T15:42:19.707Z,20.07
2022-09-27T15:44:46.999Z,20.08
2022-09-27T15:47:40.702Z,20.07
2022-09-27T15:50:17.154Z,20.05
2022-09-27T15:52:47.205Z,20.04
2022-09-27T15:55:14.887Z,20.00
2022-09-27T15:57:42.023Z,19.99
2022-09-27T16:00:19.061Z,19.99
2022-09-27T16:02:46.737Z,19.99
2022-09-27T16:05:14.048Z,19.97
2022-09-27T16:07:41.125Z,19.97
2022-09-27T16:10:14.925Z,19.93
2022-09-27T16:12:42.119Z,19.92
2022-09-27T16:15:09.401Z,19.87
2022-09-27T16:17:38.503Z,19.83
2022-09-27T16:20:06.441Z,19.79
2022-09-27T16:22:33.603Z,19.85
2022-09-27T16:25:01.504Z,19.82
2022-09-27T16:27:29.348Z,19.78
2022-09-27T16:29:58.106Z,19.75
2022-09-27T16:32:25.624Z,19.72
2022-09-27T16:34:52.789Z,19.67
2022-09-27T16:37:20.038Z,19.64
2022-09-27T16:39:47.211Z,19.61
2022-09-27T16:42:15.255Z,19.58
2022-09-27T16:44:42.362Z,19.57
2022-09-27T16:47:09.567Z,19.55
2022-09-27T16:50:08.777Z,19.51
2022-09-27T16:52:35.930Z,19.43
2022-09-27T16:55:03.130Z,19.40
2022-09-27T16:57:30.315Z,19.38
2022-09-27T16:59:57.418Z,19.36
2022-09-27T17:02:24.808Z,19.33
2022-09-27T17:04:52.484Z,19.38
2022-09-27T17:07:20.257Z,19.33
2022-09-27T17:09:47.322Z,19.35
2022-09-27T17:12:14.773Z,19.33
2022-09-27T17:14:41.834Z,19.30
2022-09-27T17:17:08.980Z,19.37
2022-09-27T17:19:37.987Z,19.37
2022-09-27T17:22:06.390Z,19.40
2022-09-27T17:24:33.467Z,19.41
2022-09-27T17:27:00.569Z,19.37
2022-09-27T17:29:27.773Z,19.34
2022-09-27T17:32:24.613Z,19.33
2022-09-27T17:34:51.848Z,19.34
2022-09-27T17:37:19.290Z,19.32
2022-09-27T17:39:46.460Z,19.27
2022-09-27T17:42:13.577Z,19.22
2022-09-27T17:44:40.661Z,19.08
2022-09-27T17:47:45.870Z,18.95
2022-09-27T17:50:25.064Z,18.78
2022-09-27T17:52:53.423Z,18.66
2022-09-27T17:55:24.002Z,18.63
2022-09-27T17:57:51.309Z,18.65
2022-09-27T18:00:18.813Z,18.65
2022-09-27T18:02:46.431Z,18.66
2022-09-27T18:05:13.865Z,18.60
2022-09-27T18:07:41.006Z,18.63
2022-09-27T18:10:08.169Z,18.63
2022-09-27T18:12:35.339Z,18.59
2022-09-27T18:15:03.289Z,18.60
2022-09-27T18:17:30.791Z,18.60
2022-09-27T18:20:00.007Z,18.59
2022-09-27T18:22:29.414Z,18.56
2022-09-27T18:24:56.713Z,18.53
2022-09-27T18:27:23.839Z,18.51
2022-09-27T18:29:50.881Z,18.47
2022-09-27T18:32:18.280Z,18.51
2022-09-27T18:34:45.372Z,18.44
2022-09-27T18:37:12.480Z,18.37
2022-09-27T18:39:40.467Z,18.28
2022-09-27T18:42:09.006Z,18.20
2022-09-27T18:44:36.232Z,18.19
2022-09-27T18:47:03.481Z,18.19
2022-09-27T18:49:33.794Z,18.24
2022-09-27T18:52:02.672Z,18.28
2022-09-27T18:54:29.766Z,18.28
2022-09-27T18:56:56.856Z,17.99
2022-09-27T18:59:24.086Z,17.70
2022-09-27T19:01:51.547Z,17.46
2022-09-27T19:04:24.859Z,17.39
2022-09-27T19:06:57.120Z,17.55
2022-09-27T19:09:26.331Z,17.60
2022-09-27T19:11:53.799Z,17.70
2022-09-27T19:14:22.376Z,17.59
2022-09-27T19:16:49.730Z,17.59
2022-09-27T19:19:17.576Z,17.57
2022-09-27T19:21:44.915Z,17.47
2022-09-27T19:24:13.886Z,17.35
2022-09-27T19:26:41.038Z,17.33
2022-09-27T19:29:08.102Z,17.37
2022-09-27T19:31:35.986Z,17.41
2022-09-27T19:34:03.706Z,17.41
2022-09-27T19:36:31.184Z,17.37
2022-09-27T19:38:58.833Z,17.40
2022-09-27T19:41:26.627Z,17.36
2022-09-27T19:43:54.604Z,17.33
2022-09-27T19:46:22.362Z,17.34
2022-09-27T19:48:49.990Z,17.33
2022-09-27T19:51:21.923Z,17.42
2022-09-27T19:53:49.410Z,17.48
2022-09-27T19:56:16.852Z,17.49
2022-09-27T19:58:44.090Z,17.57
2022-09-27T20:01:12.670Z,17.66
2022-09-27T20:03:41.578Z,17.65
2022-09-27T20:06:10.063Z,17.53
2022-09-27T20:08:37.271Z,17.37
2022-09-27T20:11:06.826Z,17.34
2022-09-27T20:13:34.580Z,17.31
2022-09-27T20:16:03.587Z,17.34
2022-09-27T20:18:31.191Z,17.28
2022-09-27T20:21:02.279Z,17.23
2022-09-27T20:23:30.454Z,17.20
2022-09-27T20:26:05.353Z,17.22
2022-09-27T20:28:32.680Z,17.25
2022-09-27T20:31:01.024Z,17.34
2022-09-27T20:33:46.931Z,17.35
2022-09-27T20:36:15.635Z,17.37
2022-09-27T20:38:44.254Z,17.37
2022-09-27T20:41:12.369Z,17.30
2022-09-27T20:43:39.457Z,17.28
2022-09-27T20:46:08.247Z,17.19
2022-09-27T20:48:35.566Z,17.05
2022-09-27T20:51:04.916Z,17.01
2022-09-27T20:53:32.857Z,17.04
2022-09-27T20:56:02.702Z,17.03
2022-09-27T20:58:30.787Z,16.99
2022-09-27T21:01:03.783Z,16.76
2022-09-27T21:03:30.982Z,16.71
2022-09-27T21:05:58.720Z,16.70
2022-09-27T21:08:28.517Z,16.75
2022-09-27T21:10:55.676Z,16.78
2022-09-27T21:13:22.749Z,16.76
2022-09-27T21:15:49.891Z,16.78
2022-09-27T21:18:19.551Z,16.83
2022-09-27T21:20:46.662Z,16.77
2022-09-27T21:23:14.653Z,16.73
2022-09-27T21:25:41.782Z,16.67
2022-09-27T21:28:09.168Z,16.78
2022-09-27T21:30:36.321Z,16.79
2022-09-27T21:33:03.828Z,16.86
2022-09-27T21:35:30.904Z,16.94
2022-09-27T21:37:58.096Z,16.94
2022-09-27T21:40:25.289Z,16.91
2022-09-27T21:42:56.923Z,16.85
2022-09-27T21:45:24.766Z,16.88
2022-09-27T21:47:51.816Z,16.96
2022-09-27T21:50:18.904Z,16.91
2022-09-27T21:52:46.039Z,16.75
2022-09-27T21:55:13.155Z,16.54
2022-09-27T21:57:40.387Z,16.77
2022-09-27T22:00:08.721Z,16.80
2022-09-27T22:02:35.914Z,16.76
2022-09-27T22:05:03.015Z,16.71
2022-09-27T22:07:30.278Z,16.68
2022-09-27T22:09:57.481Z,16.51
2022-09-27T22:12:24.542Z,16.34
2022-09-27T22:14:51.588Z,16.11
2022-09-27T22:17:18.667Z,16.02
2022-09-27T22:19:45.797Z,16.05
2022-09-27T22:22:12.971Z,15.92
2022-09-27T22:24:40.067Z,15.87
2022-09-27T22:27:07.136Z,15.77
2022-09-27T22:29:34.334Z,15.65
2022-09-27T22:32:02.292Z,15.71
2022-09-27T22:34:29.468Z,15.59
2022-09-27T22:36:57.088Z,15.60
2022-09-27T22:39:24.390Z,15.72
2022-09-27T22:41:51.470Z,15.78
2022-09-27T22:44:18.738Z,15.92
2022-09-27T22:46:46.323Z,15.99
2022-09-27T22:49:13.851Z,16.03
2022-09-27T22:51:41.067Z,16.16
2022-09-27T22:54:08.214Z,16.16
2022-09-27T22:56:35.252Z,16.18
2022-09-27T22:59:02.368Z,16.15
2022-09-27T23:01:29.490Z,16.15
2022-09-27T23:03:57.220Z,16.26
2022-09-27T23:06:24.453Z,16.24
2022-09-27T23:08:51.670Z,16.18
2022-09-27T23:11:20.005Z,16.24
2022-09-27T23:13:48.261Z,16.14
2022-09-27T23:16:20.275Z,15.99
2022-09-27T23:18:50.183Z,15.86
2022-09-27T23:21:17.368Z,15.78
2022-09-27T23:23:45.740Z,15.66
2022-09-27T23:26:13.953Z,15.38
2022-09-27T23:28:41.111Z,15.29
2022-09-27T23:31:09.516Z,15.35
2022-09-27T23:33:37.714Z,15.45
2022-09-27T23:36:05.818Z,15.66
2022-09-27T23:38:33.256Z,15.68
2022-09-27T23:41:00.543Z,15.65
2022-09-27T23:43:27.753Z,15.57
2022-09-27T23:45:57.186Z,15.57
2022-09-27T23:48:24.739Z,15.57
2022-09-27T23:50:52.240Z,15.52
2022-09-27T23:53:20.205Z,15.48
2022-09-27T23:55:48.554Z,15.45
2022-09-27T23:58:15.864Z,15.43
